createdAt,value
2022-10-13T00:00:53.102Z,10.18
2022-10-13T00:03:21.200Z,10.10
2022-10-13T00:05:51.002Z,10.50
2022-10-13T00:08:21.178Z,9.95
2022-10-13T00:10:52.129Z,9.35
2022-10-13T00:13:21.245Z,9.60
2022-10-13T00:15:49.750Z,9.88
2022-10-13T00:18:20.090Z,9.82
2022-10-13T00:20:51.256Z,9.75
2022-10-13T00:23:19.678Z,10.13
2022-10-13T00:25:53.284Z,10.75
2022-10-13T00:28:21.697Z,10.57
2022-10-13T00:30:49.742Z,9.85
2022-10-13T00:33:17.778Z,10.30
2022-10-13T00:35:49.326Z,10.65
2022-10-13T00:38:19.640Z,9.88
2022-10-13T00:40:49.622Z,11.02
2022-10-13T00:43:22.464Z,9.63
2022-10-13T00:45:52.049Z,11.02
2022-10-13T00:48:23.746Z,10.18
2022-10-13T00:50:52.647Z,9.93
2022-10-13T00:53:24.532Z,9.90
2022-10-13T00:55:54.440Z,9.77
2022-10-13T00:58:26.663Z,9.70
2022-10-13T01:00:54.974Z,11.15
2022-10-13T01:03:23.638Z,10.25
2022-10-13T01:05:53.695Z,10.35
2022-10-13T01:08:22.933Z,10.68
2022-10-13T01:11:01.780Z,11.05
2022-10-13T01:13:38.570Z,10.85
2022-10-13T01:16:14.274Z,10.50
2022-10-13T01:18:49.982Z,10.38
2022-10-13T01:21:24.743Z,10.80
2022-10-13T01:24:41.630Z,10.80
2022-10-13T01:27:46.570Z,9.27
2022-10-13T01:30:19.216Z,10.85
2022-10-13T01:33:13.091Z,9.80
2022-10-13T01:35:50.572Z,10.93
2022-10-13T01:38:28.043Z,9.95
2022-10-13T01:41:03.434Z,10.55
2022-10-13T01:43:38.354Z,10.65
2022-10-13T01:46:13.577Z,10.98
2022-10-13T01:48:44.695Z,10.65
2022-10-13T01:51:17.588Z,11.32
2022-10-13T01:56:15.163Z,10.60
2022-10-13T01:58:43.436Z,10.32
2022-10-13T02:01:37.417Z,11.05
2022-10-13T02:04:18.770Z,10.45
2022-10-13T02:06:52.198Z,10.63
2022-10-13T02:09:26.735Z,11.10
2022-10-13T02:11:59.834Z,10.75
2022-10-13T02:14:31.166Z,10.98
2022-10-13T02:17:04.554Z,10.95
2022-10-13T02:19:35.938Z,10.88
2022-10-13T02:22:04.661Z,10.80
2022-10-13T02:24:33.560Z,10.43
2022-10-13T02:27:01.875Z,11.20
2022-10-13T02:29:29.935Z,10.80
2022-10-13T02:31:57.965Z,11.05
2022-10-13T02:34:27.485Z,10.68
2022-10-13T02:36:55.497Z,10.30
2022-10-13T02:39:23.544Z,12.30
2022-10-13T02:41:51.728Z,11.02
2022-10-13T02:44:19.749Z,10.75
2022-10-13T02:46:47.847Z,10.57
2022-10-13T02:49:15.882Z,11.35
2022-10-13T02:51:45.619Z,10.60
2022-10-13T02:54:13.704Z,10.70
2022-10-13T02:56:41.966Z,11.48
2022-10-13T02:59:10.039Z,10.73
2022-10-13T03:01:41.450Z,10.88
2022-10-13T03:04:10.043Z,11.65
2022-10-13T03:06:38.382Z,10.10
2022-10-13T03:09:07.872Z,10.65
2022-10-13T03:11:35.851Z,10.68
2022-10-13T03:14:03.832Z,10.90
2022-10-13T03:16:32.202Z,10.10
2022-10-13T03:19:00.332Z,10.20
2022-10-13T03:21:28.436Z,10.73
2022-10-13T03:23:56.553Z,10.63
2022-10-13T03:26:25.943Z,10.88
2022-10-13T03:28:54.272Z,10.90
2022-10-13T03:31:22.567Z,10.85
2022-10-13T03:33:51.699Z,10.10
2022-10-13T03:36:19.987Z,11.48
2022-10-13T03:38:48.073Z,11.75
2022-10-13T03:41:17.735Z,11.07
2022-10-13T03:43:47.416Z,12.13
2022-10-13T03:46:17.534Z,11.25
2022-10-13T03:48:46.116Z,11.98
2022-10-13T03:51:16.603Z,11.77
2022-10-13T03:53:44.867Z,11.88
2022-10-13T03:56:15.602Z,12.18
2022-10-13T03:58:44.139Z,11.52
2022-10-13T04:01:15.092Z,11.63
2022-10-13T04:03:43.158Z,11.93
2022-10-13T04:06:11.209Z,11.48
2022-10-13T04:08:39.275Z,11.88
2022-10-13T04:11:09.304Z,12.38
2022-10-13T04:13:37.469Z,12.27
2022-10-13T04:16:07.481Z,11.52
2022-10-13T04:18:39.991Z,11.57
2022-10-13T04:21:13.674Z,11.70
2022-10-13T04:23:41.850Z,11.82
2022-10-13T04:26:16.982Z,11.70
2022-10-13T04:28:46.193Z,11.45
2022-10-13T04:31:14.468Z,11.68
2022-10-13T04:33:44.499Z,12.25
2022-10-13T04:36:14.620Z,12.43
2022-10-13T04:38:42.995Z,11.82
2022-10-13T04:41:12.191Z,12.07
2022-10-13T04:43:40.398Z,11.82
2022-10-13T04:46:11.765Z,11.23
2022-10-13T04:48:39.863Z,10.95
2022-10-13T04:51:11.858Z,11.73
2022-10-13T04:53:40.765Z,10.43
2022-10-13T04:56:11.041Z,11.93
2022-10-13T04:58:40.155Z,11.40
2022-10-13T05:01:15.396Z,11.30
2022-10-13T05:03:46.160Z,10.98
2022-10-13T05:06:20.662Z,11.38
2022-10-13T05:08:48.751Z,11.25
2022-10-13T05:11:16.878Z,11.80
2022-10-13T05:13:45.039Z,11.20
2022-10-13T05:16:15.915Z,11.32
2022-10-13T05:18:44.437Z,11.25
2022-10-13T05:21:16.627Z,10.70
2022-10-13T05:23:46.435Z,11.27
2022-10-13T05:26:17.003Z,11.50
2022-10-13T05:28:45.721Z,10.98
2022-10-13T05:31:16.207Z,10.15
2022-10-13T05:33:45.262Z,10.65
2022-10-13T05:36:15.610Z,10.63
2022-10-13T05:38:45.442Z,10.35
2022-10-13T05:41:15.486Z,11.50
2022-10-13T05:43:43.943Z,11.98
2022-10-13T05:46:12.327Z,11.80
2022-10-13T05:48:40.556Z,11.07
2022-10-13T05:51:15.426Z,11.77
2022-10-13T05:53:51.942Z,11.45
2022-10-13T05:56:25.793Z,12.45
2022-10-13T05:59:00.305Z,11.13
2022-10-13T06:01:32.558Z,11.40
2022-10-13T06:04:05.125Z,12.02
2022-10-13T06:06:33.284Z,12.02
2022-10-13T06:09:02.918Z,11.40
2022-10-13T06:11:31.028Z,12.07
2022-10-13T06:13:59.117Z,11.50
2022-10-13T06:16:27.466Z,10.50
2022-10-13T06:18:55.653Z,10.50
2022-10-13T06:21:24.268Z,10.57
2022-10-13T06:23:52.230Z,11.10
2022-10-13T06:26:21.598Z,11.23
2022-10-13T06:28:51.766Z,11.27
2022-10-13T06:31:21.499Z,12.55
2022-10-13T06:33:49.626Z,11.80
2022-10-13T06:36:17.675Z,13.13
2022-10-13T06:38:48.050Z,12.80
2022-10-13T06:41:16.124Z,12.35
2022-10-13T06:43:47.763Z,11.50
2022-10-13T06:46:15.794Z,12.30
2022-10-13T06:48:43.847Z,12.18
2022-10-13T06:51:13.070Z,11.70
2022-10-13T06:53:41.084Z,11.45
2022-10-13T06:56:11.535Z,12.27
2022-10-13T06:58:40.138Z,11.77
2022-10-13T07:01:13.226Z,12.10
2022-10-13T07:03:41.303Z,11.77
2022-10-13T07:06:10.573Z,13.02
2022-10-13T07:13:11.567Z,11.23
2022-10-13T07:15:40.244Z,11.40
2022-10-13T07:18:10.061Z,11.77
2022-10-13T07:20:38.095Z,12.05
2022-10-13T07:23:06.280Z,11.45
2022-10-13T07:25:34.372Z,12.60
2022-10-13T07:28:02.433Z,12.23
2022-10-13T07:30:30.808Z,13.52
2022-10-13T07:33:00.105Z,11.77
2022-10-13T07:35:31.814Z,12.07
2022-10-13T07:38:00.288Z,12.07
2022-10-13T07:40:28.351Z,12.55
2022-10-13T07:42:57.465Z,11.73
2022-10-13T07:45:26.072Z,12.23
2022-10-13T07:47:54.379Z,12.80
2022-10-13T07:50:22.395Z,11.43
2022-10-13T07:52:51.914Z,12.50
2022-10-13T07:55:20.012Z,12.48
2022-10-13T07:57:48.022Z,12.27
2022-10-13T08:00:16.627Z,12.73
2022-10-13T08:02:44.745Z,12.82
2022-10-13T08:05:12.809Z,12.65
2022-10-13T08:07:40.900Z,13.25
2022-10-13T08:10:11.024Z,12.85
2022-10-13T08:12:39.197Z,12.98
2022-10-13T08:15:08.708Z,12.63
2022-10-13T08:17:37.089Z,12.68
2022-10-13T08:20:06.694Z,13.50
2022-10-13T08:22:35.310Z,13.75
2022-10-13T08:25:03.516Z,13.13
2022-10-13T08:27:50.102Z,12.65
2022-10-13T08:30:19.149Z,13.23
2022-10-13T08:32:47.463Z,13.10
2022-10-13T08:35:16.009Z,12.98
2022-10-13T08:37:44.310Z,13.50
2022-10-13T08:40:16.460Z,12.88
2022-10-13T08:42:46.604Z,14.23
2022-10-13T08:45:40.369Z,13.88
2022-10-13T08:48:15.004Z,13.07
2022-10-13T08:50:45.319Z,13.55
2022-10-13T08:53:19.619Z,12.52
2022-10-13T08:55:51.606Z,13.60
2022-10-13T08:58:24.695Z,12.63
2022-10-13T09:01:01.766Z,11.95
2022-10-13T09:03:31.020Z,11.95
2022-10-13T09:06:11.725Z,12.35
2022-10-13T09:08:44.246Z,12.27
2022-10-13T09:11:13.953Z,12.73
2022-10-13T09:13:43.820Z,12.60
2022-10-13T09:16:12.181Z,11.75
2022-10-13T09:18:40.617Z,13.05
2022-10-13T09:21:22.301Z,12.68
2022-10-13T09:23:51.726Z,12.00
2022-10-13T09:26:23.827Z,11.48
2022-10-13T09:28:53.773Z,12.00
2022-10-13T09:31:27.049Z,11.15
2022-10-13T09:34:00.050Z,10.63
2022-10-13T09:36:28.569Z,10.43
2022-10-13T09:39:13.758Z,11.20
2022-10-13T09:41:43.434Z,11.27
2022-10-13T09:44:15.958Z,10.43
2022-10-13T09:46:51.518Z,11.15
2022-10-13T09:49:31.269Z,10.50
2022-10-13T09:52:03.938Z,10.50
2022-10-13T09:54:44.724Z,10.10
2022-10-13T09:57:19.483Z,10.57
2022-10-13T09:59:51.732Z,10.75
2022-10-13T10:02:31.842Z,10.27
2022-10-13T10:05:06.318Z,10.50
2022-10-13T10:07:35.052Z,10.32
2022-10-13T10:10:09.292Z,10.40
2022-10-13T10:12:42.059Z,11.87
2022-10-13T10:15:21.396Z,10.45
2022-10-13T10:17:55.589Z,11.43
2022-10-13T10:20:43.551Z,10.27
2022-10-13T10:23:15.981Z,10.23
2022-10-13T10:25:48.241Z,10.35
2022-10-13T10:28:38.088Z,10.20
2022-10-13T10:31:20.278Z,9.20
2022-10-13T10:34:00.271Z,9.80
2022-10-13T10:36:35.725Z,10.45
2022-10-13T10:39:15.563Z,10.43
2022-10-13T10:41:49.990Z,10.23
2022-10-13T10:44:22.495Z,10.82
2022-10-13T10:46:55.734Z,11.48
2022-10-13T10:49:28.624Z,10.95
2022-10-13T10:54:37.422Z,10.60
2022-10-13T10:57:13.196Z,12.23
2022-10-13T10:59:51.441Z,10.52
2022-10-13T11:02:43.048Z,11.07
2022-10-13T11:05:11.567Z,10.32
2022-10-13T11:08:00.055Z,11.05
2022-10-13T11:10:29.530Z,10.90
2022-10-13T11:13:22.364Z,11.25
2022-10-13T11:15:50.670Z,11.00
2022-10-13T11:19:05.655Z,11.38
2022-10-13T11:22:23.278Z,11.20
2022-10-13T11:24:59.303Z,11.27
2022-10-13T11:27:45.787Z,12.32
2022-10-13T11:30:50.638Z,12.23
2022-10-13T11:33:37.656Z,11.85
2022-10-13T11:36:44.045Z,12.63
2022-10-13T11:39:37.763Z,12.85
2022-10-13T11:42:22.555Z,12.80
2022-10-13T11:44:56.890Z,12.68
2022-10-13T11:48:02.197Z,12.98
2022-10-13T11:50:38.532Z,12.93
2022-10-13T11:53:17.514Z,13.52
2022-10-13T11:55:50.513Z,12.75
2022-10-13T11:58:22.373Z,12.70
2022-10-13T12:00:58.454Z,13.63
2022-10-13T12:03:31.921Z,15.07
2022-10-13T12:06:03.611Z,13.93
2022-10-13T12:08:35.158Z,14.45
2022-10-13T12:11:07.741Z,13.93
2022-10-13T12:13:37.542Z,14.38
2022-10-13T12:16:08.288Z,14.43
2022-10-13T12:18:39.071Z,14.90
2022-10-13T12:21:12.532Z,14.25
2022-10-13T12:23:41.216Z,15.15
2022-10-13T12:26:14.992Z,14.48
2022-10-13T12:28:52.229Z,15.43
2022-10-13T12:31:22.802Z,14.75
2022-10-13T12:33:55.838Z,15.00
2022-10-13T12:36:29.355Z,14.48
2022-10-13T12:39:02.861Z,14.95
2022-10-13T12:41:33.273Z,14.25
2022-10-13T12:44:05.821Z,15.15
2022-10-13T12:46:42.745Z,14.57
2022-10-13T12:49:16.116Z,13.98
2022-10-13T12:51:46.126Z,13.18
2022-10-13T12:54:20.914Z,13.98
2022-10-13T12:56:52.406Z,14.13
2022-10-13T12:59:27.170Z,13.00
2022-10-13T13:02:01.045Z,12.98
2022-10-13T13:04:32.418Z,13.75
2022-10-13T13:07:01.888Z,13.30
2022-10-13T13:09:31.624Z,12.73
2022-10-13T13:12:27.443Z,13.05
2022-10-13T13:14:57.928Z,11.73
2022-10-13T13:20:26.083Z,11.52
2022-10-13T13:22:54.269Z,12.98
2022-10-13T13:25:22.573Z,12.27
2022-10-13T13:27:51.193Z,12.32
2022-10-13T13:30:22.466Z,12.27
2022-10-13T13:32:50.776Z,13.55
2022-10-13T13:35:19.020Z,13.18
2022-10-13T13:37:49.844Z,13.52
2022-10-13T13:40:25.923Z,13.32
2022-10-13T13:42:54.928Z,13.15
2022-10-13T13:45:25.511Z,13.13
2022-10-13T13:47:56.738Z,13.77
2022-10-13T13:50:29.563Z,12.40
2022-10-13T13:52:58.063Z,12.80
2022-10-13T13:55:26.349Z,13.02
2022-10-13T13:57:54.409Z,12.95
2022-10-13T14:00:24.550Z,13.25
2022-10-13T14:02:52.736Z,13.25
2022-10-13T14:05:20.763Z,13.25
2022-10-13T14:07:53.903Z,12.82
2022-10-13T14:10:22.055Z,12.48
2022-10-13T14:12:50.233Z,12.30
2022-10-13T14:15:18.834Z,12.20
2022-10-13T14:17:48.232Z,12.48
2022-10-13T14:20:16.426Z,13.10
2022-10-13T14:22:44.685Z,13.18
2022-10-13T14:25:13.035Z,13.07
2022-10-13T14:27:41.026Z,13.45
2022-10-13T14:30:10.642Z,13.55
2022-10-13T14:32:40.950Z,13.23
2022-10-13T14:35:10.752Z,13.23
2022-10-13T14:37:39.240Z,13.13
2022-10-13T14:40:08.428Z,13.25
2022-10-13T14:42:36.513Z,13.30
2022-10-13T14:45:06.560Z,13.35
2022-10-13T14:47:34.701Z,13.30
2022-10-13T14:50:05.688Z,12.35
2022-10-13T14:52:35.316Z,12.80
2022-10-13T14:55:03.563Z,12.30
2022-10-13T14:57:31.640Z,12.95
2022-10-13T15:00:02.113Z,12.75
2022-10-13T15:02:31.067Z,13.15
2022-10-13T15:04:59.191Z,12.88
2022-10-13T15:07:29.561Z,12.75
2022-10-13T15:10:06.641Z,13.63
2022-10-13T15:12:35.464Z,13.23
2022-10-13T15:15:03.497Z,13.30
2022-10-13T15:17:33.219Z,13.18
2022-10-13T15:20:01.715Z,13.10
2022-10-13T15:22:29.715Z,14.30
2022-10-13T15:24:59.292Z,13.48
2022-10-13T15:27:27.438Z,14.02
2022-10-13T15:29:55.700Z,13.80
2022-10-13T15:32:24.055Z,13.82
2022-10-13T15:34:52.696Z,15.00
2022-10-13T15:37:20.815Z,14.10
2022-10-13T15:39:52.075Z,14.05
2022-10-13T15:42:25.814Z,13.45
2022-10-13T15:45:10.742Z,14.57
2022-10-13T15:47:39.377Z,14.25
2022-10-13T15:50:08.680Z,16.00
2022-10-13T15:52:39.856Z,16.35
2022-10-13T15:55:08.708Z,14.68
2022-10-13T15:57:38.457Z,15.25
2022-10-13T16:00:09.205Z,15.50
2022-10-13T16:02:37.296Z,15.63
2022-10-13T16:05:05.989Z,15.35
2022-10-13T16:07:34.083Z,14.95
2022-10-13T16:10:02.334Z,15.75
2022-10-13T16:12:30.434Z,14.98
2022-10-13T16:15:00.029Z,13.90
2022-10-13T16:17:28.172Z,14.30
2022-10-13T16:19:56.461Z,15.40
2022-10-13T16:22:25.552Z,13.77
2022-10-13T16:24:53.730Z,14.85
2022-10-13T16:27:22.369Z,14.27
2022-10-13T16:29:50.597Z,14.57
2022-10-13T16:32:20.100Z,15.00
2022-10-13T16:34:49.570Z,14.80
2022-10-13T16:37:17.591Z,14.13
2022-10-13T16:39:51.244Z,15.00
2022-10-13T16:42:19.958Z,15.20
2022-10-13T16:44:48.029Z,15.38
2022-10-13T16:47:18.602Z,15.75
2022-10-13T16:49:48.455Z,16.10
2022-10-13T16:52:16.549Z,16.98
2022-10-13T16:54:44.600Z,16.27
2022-10-13T16:57:12.881Z,15.60
2022-10-13T16:59:41.151Z,16.58
2022-10-13T17:02:14.199Z,15.98
2022-10-13T17:04:42.439Z,16.05
2022-10-13T17:07:12.291Z,16.40
2022-10-13T17:09:40.408Z,16.30
2022-10-13T17:12:08.829Z,17.00
2022-10-13T17:14:36.997Z,16.17
2022-10-13T17:17:05.077Z,15.68
2022-10-13T17:19:33.172Z,16.92
2022-10-13T17:22:01.270Z,17.35
2022-10-13T17:24:30.969Z,16.65
2022-10-13T17:26:59.047Z,16.58
2022-10-13T17:29:27.525Z,17.15
2022-10-13T17:31:55.770Z,16.83
2022-10-13T17:34:23.740Z,17.20
2022-10-13T17:36:51.870Z,16.75
2022-10-13T17:39:20.126Z,17.27
2022-10-13T17:41:49.557Z,18.08
2022-10-13T17:44:20.533Z,18.83
2022-10-13T17:46:49.344Z,18.17
2022-10-13T17:49:18.207Z,17.77
2022-10-13T17:51:46.691Z,17.73
2022-10-13T17:54:16.655Z,19.05
2022-10-13T17:56:45.495Z,18.73
2022-10-13T17:59:15.632Z,18.40
2022-10-13T18:01:43.831Z,18.30
2022-10-13T18:04:14.217Z,20.25
2022-10-13T18:06:44.347Z,19.00
2022-10-13T18:09:15.017Z,20.05
2022-10-13T18:11:49.900Z,19.67
2022-10-13T18:14:21.207Z,18.85
2022-10-13T18:16:49.961Z,20.17
2022-10-13T18:19:18.254Z,20.10
2022-10-13T18:21:46.376Z,19.38
2022-10-13T18:24:14.402Z,19.63
2022-10-13T18:26:42.681Z,19.98
2022-10-13T18:29:12.503Z,20.35
2022-10-13T18:31:42.806Z,20.85
2022-10-13T18:34:14.293Z,20.67
2022-10-13T18:36:43.945Z,20.60
2022-10-13T18:39:14.348Z,20.73
2022-10-13T18:41:42.736Z,21.27
2022-10-13T18:44:11.006Z,22.33
2022-10-13T18:46:41.298Z,21.88
2022-10-13T18:49:12.504Z,22.23
2022-10-13T18:51:40.894Z,22.85
2022-10-13T18:54:09.506Z,23.20
2022-10-13T18:56:38.081Z,22.48
2022-10-13T18:59:08.082Z,24.00
2022-10-13T19:01:37.897Z,23.80
2022-10-13T19:04:08.730Z,23.75
2022-10-13T19:06:37.022Z,23.85
2022-10-13T19:09:09.054Z,24.23
2022-10-13T19:11:38.369Z,25.25
2022-10-13T19:14:09.043Z,24.20
2022-10-13T19:16:39.026Z,26.40
2022-10-13T19:19:11.055Z,24.92
2022-10-13T19:21:40.095Z,24.50
2022-10-13T19:24:09.334Z,24.52
2022-10-13T19:26:38.027Z,27.42
2022-10-13T19:29:08.077Z,26.00
2022-10-13T19:31:37.142Z,26.58
2022-10-13T19:34:05.444Z,24.60
2022-10-13T19:36:38.900Z,25.83
2022-10-13T19:39:11.822Z,27.25
2022-10-13T19:41:40.567Z,27.17
2022-10-13T19:44:08.872Z,25.75
2022-10-13T19:46:37.641Z,27.30
2022-10-13T19:49:09.700Z,27.95
2022-10-13T19:51:39.422Z,27.65
2022-10-13T19:54:07.570Z,26.17
2022-10-13T19:56:39.001Z,24.75
2022-10-13T19:59:07.106Z,24.08
2022-10-13T20:01:39.879Z,23.30
2022-10-13T20:06:37.336Z,20.17
2022-10-13T20:09:07.162Z,18.98
2022-10-13T20:11:35.168Z,20.98
2022-10-13T20:14:03.686Z,19.88
2022-10-13T20:16:31.799Z,20.17
2022-10-13T20:19:01.968Z,17.88
2022-10-13T20:21:30.529Z,17.67
2022-10-13T20:23:58.851Z,18.58
2022-10-13T20:26:28.315Z,18.10
2022-10-13T20:28:58.174Z,17.85
2022-10-13T20:31:26.766Z,18.30
2022-10-13T20:33:55.941Z,17.67
2022-10-13T20:36:25.490Z,16.13
2022-10-13T20:38:54.166Z,17.98
2022-10-13T20:41:24.750Z,18.48
2022-10-13T20:43:55.480Z,17.50
2022-10-13T20:46:24.778Z,17.60
2022-10-13T20:49:11.341Z,17.30
2022-10-13T20:51:41.203Z,16.90
2022-10-13T20:54:09.653Z,17.45
2022-10-13T20:56:37.640Z,18.17
2022-10-13T20:59:09.328Z,17.75
2022-10-13T21:01:38.021Z,17.43
2022-10-13T21:04:06.549Z,17.08
2022-10-13T21:06:34.736Z,17.73
2022-10-13T21:09:03.256Z,18.55
2022-10-13T21:11:31.327Z,18.63
2022-10-13T21:13:59.484Z,17.55
2022-10-13T21:16:29.944Z,18.80
2022-10-13T21:18:59.220Z,19.38
2022-10-13T21:21:29.411Z,19.48
2022-10-13T21:23:58.984Z,17.58
2022-10-13T21:26:28.244Z,19.42
2022-10-13T21:28:57.039Z,20.17
2022-10-13T21:31:26.138Z,19.20
2022-10-13T21:33:55.938Z,17.98
2022-10-13T21:36:25.673Z,18.42
2022-10-13T21:38:55.703Z,20.05
2022-10-13T21:41:24.419Z,18.88
2022-10-13T21:43:53.581Z,19.27
2022-10-13T21:46:23.299Z,18.75
2022-10-13T21:48:55.591Z,19.20
2022-10-13T21:51:29.382Z,18.45
2022-10-13T21:53:59.535Z,19.55
2022-10-13T21:56:28.502Z,18.80
2022-10-13T21:58:57.103Z,18.67
2022-10-13T22:01:25.600Z,19.98
2022-10-13T22:03:57.729Z,20.63
2022-10-13T22:06:26.848Z,18.65
2022-10-13T22:08:56.419Z,20.02
2022-10-13T22:11:26.568Z,19.00
2022-10-13T22:13:56.616Z,19.15
2022-10-13T22:16:26.807Z,22.20
2022-10-13T22:18:58.091Z,21.67
2022-10-13T22:21:29.210Z,21.23
2022-10-13T22:23:58.123Z,20.67
2022-10-13T22:26:27.087Z,22.42
2022-10-13T22:28:55.602Z,22.88
2022-10-13T22:31:23.640Z,23.50
2022-10-13T22:33:53.753Z,23.17
2022-10-13T22:36:25.982Z,22.73
2022-10-13T22:38:57.015Z,23.67
2022-10-13T22:41:25.580Z,23.83
2022-10-13T22:43:55.396Z,24.92
2022-10-13T22:46:25.219Z,23.70
2022-10-13T22:48:53.539Z,24.77
2022-10-13T22:51:25.684Z,24.02
2022-10-13T22:53:54.105Z,24.85
2022-10-13T22:56:24.294Z,25.98
2022-10-13T22:58:53.563Z,25.25
2022-10-13T23:01:22.710Z,23.85
2022-10-13T23:03:52.267Z,26.85
2022-10-13T23:06:22.533Z,24.05
2022-10-13T23:08:52.199Z,23.00
2022-10-13T23:11:20.249Z,23.67
2022-10-13T23:13:49.186Z,23.98
2022-10-13T23:16:19.812Z,28.65
2022-10-13T23:18:48.027Z,30.13
2022-10-13T23:21:18.493Z,29.15
2022-10-13T23:23:47.369Z,26.83
2022-10-13T23:26:18.325Z,25.40
2022-10-13T23:28:46.619Z,23.85
2022-10-13T23:31:16.955Z,25.17
2022-10-13T23:33:45.370Z,23.52
2022-10-13T23:36:17.058Z,26.08
2022-10-13T23:38:46.245Z,24.48
2022-10-13T23:41:17.323Z,25.13
2022-10-13T23:43:45.515Z,23.42
2022-10-13T23:46:13.478Z,25.10
2022-10-13T23:48:41.916Z,24.15
2022-10-13T23:51:12.087Z,23.95
2022-10-13T23:53:40.745Z,23.35
2022-10-13T23:56:10.492Z,24.70
2022-10-13T23:58:41.593Z,23.20
